• Join FlightAware (Why Join?)
  • Login
  • US Flag 
02:53PM EDT


 

Airport Tracker/Info


-or-


 

Live Flight TrackerFlight Track Log ✈ EJA583 ✈ 04-Nov-2013 ✈ KCMH - KTEB

Flight Track Log - Related Links

Times and Time Zones

All times are in EST time to prevent confusion due to time zone crossing. See the EJA583 flight status page for this flight to view local times or setup timezone preferences in your user account.

Time Position Orientation Groundspeed Altitude Reporting Facility
EST Latitude Longitude Course Direction KTS MPH feet Rate Location/Type
09:07AM 40.0022 -82.8853 88° East 145 167 1,300  Level Indianapolis Center
09:07AM 40.0031 -82.8511 88° East 183 211 3,400 3,780 Climbing Indianapolis Center
09:08AM 40.0039 -82.8256 88° East 198 228 4,800 3,540 Climbing Indianapolis Center
09:08AM 40.0044 -82.7728 89° East 219 252 7,100 3,360 Climbing Indianapolis Center
09:09AM 40.0019 -82.7325 95° East 266 306 8,600 2,700 Climbing Indianapolis Center
09:09AM 40.0028 -82.6778 89° East 257 296 9,900 1,380 Climbing Indianapolis Center
09:10AM 40.0011 -82.5544 91° East 330 380 11,000 2,220 Climbing Indianapolis Center
09:11AM 40.0169 -82.4050 82° East 344 396 14,500 3,000 Climbing Indianapolis Center
09:12AM 40.0353 -82.2839 79° East 343 395 17,300 2,280 Climbing Indianapolis Center
09:13AM 40.0528 -82.1600 80° East 346 398 19,300 2,160 Climbing Indianapolis Center
09:14AM 40.0703 -82.0269 80° East 366 421 21,800 2,340 Climbing Indianapolis Center
09:16AM 40.0883 -81.8917 80° East 377 434 24,200 2,280 Climbing Indianapolis Center
09:17AM 40.1108 -81.7275 80° East 396 456 26,600 2,100 Climbing Indianapolis Center
09:18AM 40.1311 -81.5778 80° East 412 474 28,600 1,740 Climbing Indianapolis Center
09:19AM 40.1503 -81.4247 81° East 419 482 30,200 1,500 Climbing Indianapolis Center
09:20AM 40.1719 -81.2692 80° East 430 495 31,800 1,500 Climbing Indianapolis Center
09:21AM 40.2078 -81.1142 73° East 439 505 33,300 1,380 Climbing Indianapolis Center
09:22AM 40.2397 -80.9569 75° East 446 513 34,700 1,320 Climbing Indianapolis Center
09:23AM 40.2783 -80.7647 75° East 461 531 36,100 1,080 Climbing Indianapolis Center
09:24AM 40.3178 -80.6047 72° East 460 529 37,000 420 Climbing Indianapolis Center
09:25AM 40.3578 -80.4389 72° East 473 544 37,000  Level Indianapolis Center
09:26AM 40.3994 -80.2672 72° East 490 564 37,000  Level Indianapolis Center
09:27AM 40.4531 -80.0311 73° East 485 558 37,000  Level Cleveland Center
09:28AM 40.4958 -79.8619 72° East 490 564 37,000  Level Cleveland Center
09:29AM 40.5344 -79.6933 73° East 486 559 37,000  Level Cleveland Center
09:30AM 40.5814 -79.4914 73° East 483 556 37,000  Level Cleveland Center
09:31AM 40.6197 -79.3225 73° East 481 554 37,000  Level Cleveland Center
09:32AM 40.6589 -79.1528 73° East 485 558 37,000  Level Cleveland Center
09:33AM 40.6975 -78.9833 73° East 484 557 37,000  Level Cleveland Center
09:35AM 40.7344 -78.8186 73° East 485 558 37,000  Level Cleveland Center
09:36AM 40.7800 -78.6142 74° East 490 564 37,000  Level Cleveland Center
09:37AM 40.8178 -78.4450 74° East 491 565 37,000  Level Cleveland Center
09:38AM 40.8592 -78.2608 73° East 493 567 37,000  Level Cleveland Center
09:39AM 40.8933 -78.1031 74° East 494 568 37,000  Level Cleveland Center
09:40AM 40.9544 -77.9092 67° East 482 555 37,000  Level Cleveland Center
09:41AM 41.0208 -77.7617 59° Northeast 473 544 37,000  Level Cleveland Center
09:42AM 41.0822 -77.6106 62° Northeast 471 542 37,000  Level Cleveland Center
09:43AM 41.1069 -77.4022 81° East 478 550 37,000 -540 Level New York Center
09:44AM 41.1283 -77.2058 82° East 473 544 35,900 -1,440 Descending New York Center
09:45AM 41.1464 -77.0231 82° East 486 559 34,200 -960 Descending New York Center
09:46AM 41.1644 -76.8372 83° East 499 574 34,000 -900 Descending New York Center
09:47AM 41.2122 -76.6733 69° East 499 574 32,500 -1,740 Descending New York Center
09:48AM 41.2700 -76.5153 64° Northeast 477 549 30,600 -1,800 Descending New York Center
09:49AM 41.3219 -76.3403 68° East 464 534 28,900 -2,400 Descending New York Center
09:50AM 41.2972 -76.1558 100° East 465 535 25,800 -2,760 Descending New York Center
09:51AM 41.2881 -75.9867 94° East 459 528 23,400 -2,340 Descending New York Center
09:52AM 41.2806 -75.8261 94° East 454 522 21,200 -2,100 Descending New York Center
09:53AM 41.2714 -75.6983 95° East 440 506 19,300 -2,040 Descending New York Center
09:54AM 41.2217 -75.5403 113° Southeast 421 484 17,200 -2,520 Descending New York Center
09:55AM 41.1733 -75.3936 114° Southeast 403 464 14,300 -2,700 Descending New York Center
09:56AM 41.1303 -75.2639 114° Southeast 395 455 11,900 -2,400 Descending New York Center
09:57AM 41.0908 -75.1483 114° Southeast 361 415 9,500 -2,160 Descending New York Center
09:58AM 41.0692 -75.0589 108° East 311 358 7,600 -1,740 Descending New York Center
09:59AM 41.0606 -74.9539 96° East 264 304 6,100 -780 Descending New York Center
10:00AM 41.0303 -74.8667 115° Southeast 257 296 6,100 -660 Level New York Center
10:01AM 40.9892 -74.7900 125° Southeast 262 302 4,800 -1,020 Descending New York Center
10:02AM 40.9478 -74.7133 126° Southeast 257 296 4,100 -360 Descending New York Center
10:03AM 40.9125 -74.6481 126° Southeast 249 287 4,100  Level New York Center
10:04AM 40.8667 -74.5667 127° Southeast 251 289 4,100 -540 Level New York TRACON
10:05AM 40.8333 -74.5000 123° Southeast 245 282 3,200 -540 Descending New York TRACON
10:06AM 40.8000 -74.4333 123° Southeast 243 280 3,100 -360 Descending New York TRACON
10:07AM 40.7667 -74.3667 123° Southeast 212 244 2,600 -600 Descending New York TRACON
10:08AM 40.7333 -74.3167 131° Southeast 199 229 2,100 -300 Descending New York TRACON
10:09AM 40.7500 -74.2500 72° East 181 208 2,100 -180 Level New York TRACON
10:10AM 40.7667 -74.1833 72° East 172 198 1,800 -300 Descending New York TRACON
10:11AM 40.8000 -74.1500 37° Northeast 134 154 1,500 -300 Descending New York TRACON
10:12AM 40.8167 -74.1167 57° Northeast 129 148 1,200 -480 Descending New York TRACON
10:13AM 40.8167 -74.0667 90° East 124 143 600 -720 Descending New York TRACON
10:15AM 40.8500 -74.0500 75° East  Level FlightAware Approximate
10:22AM 40.8501 -74.0608 75° East  Level Estimated